Time;durP1;ratioP1;P1;durP2;ratioP2;P2;SDS_P1;SDS_P2;PMS_P1;PMS_P2;Temp;Humidity;BMP_temperature;BMP_pressure;BME280_temperature;BME280_humidity;BME280_pressure;Samples;Min_cycle;Max_cycle;Signal;HPM_P1;HPM_P2
2021/10/15 00:01:23;;;;;;;14.50;10.00;;;13.40;94.90;;;;;;5013766;28;20072;-68
2021/10/15 00:03:49;;;;;;;15.73;9.82;;;13.40;94.70;;;;;;5015108;28;20026;-68
2021/10/15 00:06:15;;;;;;;15.55;9.45;;;13.40;94.70;;;;;;5013547;28;20026;-68
2021/10/15 00:08:40;;;;;;;17.35;10.52;;;13.40;94.70;;;;;;5013368;28;20598;-69
2021/10/15 00:11:06;;;;;;;15.30;10.45;;;13.40;94.50;;;;;;5014955;28;20057;-68
2021/10/15 00:13:31;;;;;;;16.20;10.18;;;13.40;94.50;;;;;;5014903;28;20057;-68
2021/10/15 00:15:57;;;;;;;15.70;10.18;;;13.40;94.50;;;;;;5014758;28;20166;-68
2021/10/15 00:18:24;;;;;;;15.95;10.13;;;13.40;94.50;;;;;;5014446;28;20041;-68
2021/10/15 00:20:49;;;;;;;15.05;9.40;;;13.40;94.40;;;;;;5014761;28;20571;-68
2021/10/15 00:23:15;;;;;;;13.55;9.02;;;13.40;94.40;;;;;;5013444;28;20057;-68
2021/10/15 00:25:40;;;;;;;14.05;9.30;;;13.40;94.40;;;;;;5014567;28;20401;-68
2021/10/15 00:28:06;;;;;;;14.35;9.27;;;13.40;94.40;;;;;;5014508;28;20041;-67
2021/10/15 00:30:31;;;;;;;15.68;9.32;;;13.40;94.40;;;;;;5014270;28;20026;-69
2021/10/15 00:32:57;;;;;;;13.82;9.00;;;13.30;94.30;;;;;;5014480;28;20034;-67
2021/10/15 00:35:23;;;;;;;16.00;9.60;;;13.40;94.40;;;;;;5014373;28;20033;-68
2021/10/15 00:37:48;;;;;;;15.88;8.95;;;13.40;94.30;;;;;;5014402;28;20030;-67
2021/10/15 00:40:16;;;;;;;13.68;8.60;;;13.30;94.20;;;;;;5014115;28;20076;-68
2021/10/15 00:42:42;;;;;;;12.68;7.60;;;13.40;94.20;;;;;;5014462;28;20026;-67
2021/10/15 00:45:08;;;;;;;13.68;8.18;;;13.40;94.20;;;;;;5014178;28;20044;-68
2021/10/15 00:47:33;;;;;;;14.90;8.57;;;13.40;94.10;;;;;;5014358;28;20033;-68
2021/10/15 00:49:59;;;;;;;12.90;7.97;;;13.40;94.00;;;;;;5013860;28;20026;-68
2021/10/15 00:52:26;;;;;;;14.35;8.02;;;13.40;94.00;;;;;;5014261;28;20113;-68
2021/10/15 00:54:52;;;;;;;12.55;7.68;;;13.40;94.00;;;;;;5014200;28;20099;-68
2021/10/15 00:57:17;;;;;;;13.90;8.05;;;13.30;93.90;;;;;;5012759;28;20021;-68
2021/10/15 00:59:43;;;;;;;13.18;7.40;;;13.30;93.90;;;;;;5013710;28;20022;-69
2021/10/15 01:02:09;;;;;;;14.48;8.23;;;13.40;93.90;;;;;;5013982;28;20041;-68
2021/10/15 01:04:35;;;;;;;14.18;6.85;;;13.40;93.90;;;;;;5013995;28;20022;-68
2021/10/15 01:07:01;;;;;;;14.93;7.72;;;13.40;93.90;;;;;;5013246;28;20038;-68
2021/10/15 01:09:27;;;;;;;12.32;7.90;;;13.30;93.90;;;;;;5013660;28;20032;-68
2021/10/15 01:11:55;;;;;;;13.23;7.30;;;13.40;93.80;;;;;;5013924;28;20493;-68
2021/10/15 01:14:21;;;;;;;11.95;7.63;;;13.40;93.60;;;;;;5013693;28;20088;-68
2021/10/15 01:16:47;;;;;;;11.00;7.13;;;13.30;93.70;;;;;;5013705;28;20096;-68
2021/10/15 01:19:13;;;;;;;12.52;7.05;;;13.40;93.60;;;;;;5012252;28;20516;-68
2021/10/15 01:21:38;;;;;;;11.18;6.75;;;13.30;93.60;;;;;;5013637;28;20370;-68
2021/10/15 01:24:04;;;;;;;12.10;7.00;;;13.30;93.60;;;;;;5013583;28;20034;-68
2021/10/15 01:26:30;;;;;;;11.23;7.47;;;13.30;93.60;;;;;;5013348;28;20440;-68
2021/10/15 01:28:55;;;;;;;12.63;6.63;;;13.30;93.60;;;;;;5011821;28;20076;-68
2021/10/15 01:31:22;;;;;;;11.60;6.72;;;13.30;93.60;;;;;;5013464;28;20026;-67
2021/10/15 01:33:48;;;;;;;11.95;7.00;;;13.40;93.50;;;;;;5013506;28;20026;-68
2021/10/15 01:36:14;;;;;;;15.23;6.88;;;13.40;93.50;;;;;;5013308;28;20539;-68
2021/10/15 01:38:39;;;;;;;14.40;7.40;;;13.30;93.50;;;;;;5013002;28;20030;-68
2021/10/15 01:41:05;;;;;;;11.75;6.72;;;13.30;93.40;;;;;;5013280;28;20109;-68
2021/10/15 01:43:30;;;;;;;12.43;6.93;;;13.30;93.50;;;;;;5013105;28;20030;-69
2021/10/15 01:45:57;;;;;;;9.60;6.22;;;13.30;93.40;;;;;;5011861;28;20033;-68
2021/10/15 01:48:24;;;;;;;11.18;5.93;;;13.30;93.40;;;;;;5012693;28;20444;-69
2021/10/15 01:50:51;;;;;;;11.60;6.75;;;13.30;93.40;;;;;;5013072;28;20025;-69
2021/10/15 01:53:16;;;;;;;10.60;6.22;;;13.30;93.40;;;;;;5013101;28;20022;-68
2021/10/15 01:55:42;;;;;;;10.57;6.28;;;13.40;93.40;;;;;;5013100;28;20024;-68
2021/10/15 01:58:08;;;;;;;12.70;6.40;;;13.30;93.30;;;;;;5012835;28;20033;-68
2021/10/15 02:00:34;;;;;;;9.65;5.88;;;13.30;93.30;;;;;;5012681;28;20022;-68
2021/10/15 02:03:00;;;;;;;13.20;6.13;;;13.30;93.30;;;;;;5012906;28;20109;-68
2021/10/15 02:05:26;;;;;;;11.77;5.78;;;13.30;93.20;;;;;;5011555;28;20128;-68
2021/10/15 02:07:51;;;;;;;10.02;6.22;;;13.30;93.20;;;;;;5012663;28;20034;-68
2021/10/15 02:10:18;;;;;;;12.05;6.03;;;13.30;93.20;;;;;;5012436;28;20026;-68
2021/10/15 02:12:43;;;;;;;9.73;5.32;;;13.30;93.20;;;;;;5012604;28;20032;-68
2021/10/15 02:15:11;;;;;;;11.57;6.10;;;13.30;93.10;;;;;;5012663;28;20021;-69
2021/10/15 02:17:37;;;;;;;12.00;5.97;;;13.30;93.10;;;;;;5012538;28;20030;-68
2021/10/15 02:20:05;;;;;;;9.98;6.00;;;13.30;93.10;;;;;;5011551;28;20037;-68
2021/10/15 02:22:31;;;;;;;11.75;6.43;;;13.30;93.10;;;;;;5012552;28;20030;-68
2021/10/15 02:24:56;;;;;;;12.63;5.80;;;13.30;93.10;;;;;;5012479;28;20393;-68
2021/10/15 02:27:22;;;;;;;9.57;5.57;;;13.30;93.10;;;;;;5012309;28;20054;-68
2021/10/15 02:29:47;;;;;;;10.90;5.97;;;13.30;93.10;;;;;;5012143;28;20588;-69
2021/10/15 02:32:13;;;;;;;9.98;5.20;;;13.30;93.00;;;;;;5007672;28;20100;-68
2021/10/15 02:34:38;;;;;;;10.68;5.63;;;13.30;93.00;;;;;;5002101;28;20029;-68
2021/10/15 02:37:04;;;;;;;10.25;5.57;;;13.30;93.00;;;;;;5012071;28;20026;-69
2021/10/15 02:39:29;;;;;;;8.77;5.20;;;13.30;93.00;;;;;;5011984;28;20032;-68
2021/10/15 02:41:55;;;;;;;9.43;5.03;;;13.30;93.00;;;;;;5012137;28;20452;-67
2021/10/15 02:44:21;;;;;;;9.38;5.53;;;13.30;93.00;;;;;;5012446;28;20025;-68
2021/10/15 02:46:47;;;;;;;8.93;5.10;;;13.30;92.90;;;;;;5012113;28;20026;-68
2021/10/15 02:49:12;;;;;;;10.40;5.10;;;13.30;93.10;;;;;;5012019;28;20493;-68
2021/10/15 02:51:38;;;;;;;11.13;5.25;;;13.30;92.80;;;;;;5012083;28;20028;-68
2021/10/15 02:54:04;;;;;;;11.88;5.45;;;13.30;92.80;;;;;;5012154;28;20026;-68
2021/10/15 02:56:30;;;;;;;10.65;5.40;;;13.30;92.70;;;;;;5010621;28;20022;-68
2021/10/15 02:58:56;;;;;;;9.88;5.60;;;13.30;92.70;;;;;;5010530;28;20026;-68
2021/10/15 03:01:21;;;;;;;11.05;5.55;;;13.30;92.60;;;;;;5011931;28;20481;-68
2021/10/15 03:03:48;;;;;;;9.90;5.50;;;13.30;92.50;;;;;;5011992;28;20026;-68
2021/10/15 03:06:14;;;;;;;10.43;5.15;;;13.30;92.40;;;;;;5010546;28;20482;-68
2021/10/15 03:08:39;;;;;;;10.82;5.50;;;13.30;92.40;;;;;;5088714;22;20050;-71
2021/10/15 03:11:05;;;;;;;8.95;5.38;;;13.30;92.50;;;;;;5011675;28;20034;-71
2021/10/15 03:13:31;;;;;;;10.82;5.53;;;13.30;92.40;;;;;;5011868;28;20068;-71
2021/10/15 03:15:56;;;;;;;11.90;5.28;;;13.30;92.50;;;;;;5011849;28;20185;-70
2021/10/15 03:18:22;;;;;;;9.52;5.25;;;13.30;92.40;;;;;;5011511;28;20053;-71
2021/10/15 03:20:48;;;;;;;12.57;5.47;;;13.30;92.40;;;;;;5010620;28;20033;-71
2021/10/15 03:23:13;;;;;;;12.02;5.65;;;13.30;92.30;;;;;;5011889;28;20030;-71
2021/10/15 03:25:39;;;;;;;10.65;5.55;;;13.30;92.30;;;;;;5011659;28;20393;-71
2021/10/15 03:28:05;;;;;;;10.57;5.28;;;13.30;92.30;;;;;;5011569;28;20034;-71
2021/10/15 03:30:31;;;;;;;8.88;4.70;;;13.30;92.20;;;;;;5012818;28;20460;-71
2021/10/15 03:32:57;;;;;;;10.07;5.32;;;13.30;92.20;;;;;;5005554;28;20041;-71
2021/10/15 03:35:22;;;;;;;9.63;5.25;;;13.30;92.00;;;;;;4996803;28;20482;-71
2021/10/15 03:37:48;;;;;;;9.88;5.13;;;13.30;92.10;;;;;;4995043;28;20113;-70
2021/10/15 03:40:14;;;;;;;10.80;5.60;;;13.30;92.00;;;;;;5013965;28;20026;-70
2021/10/15 03:42:40;;;;;;;10.07;5.30;;;13.30;91.90;;;;;;5015404;28;20022;-70
2021/10/15 03:45:07;;;;;;;11.38;5.07;;;13.30;91.90;;;;;;5015216;28;20018;-71
2021/10/15 03:47:33;;;;;;;10.63;5.10;;;13.30;91.90;;;;;;5014952;28;20096;-71
2021/10/15 03:50:00;;;;;;;13.43;5.10;;;13.30;91.90;;;;;;4992906;28;20025;-71
2021/10/15 03:52:25;;;;;;;11.43;5.55;;;13.30;91.90;;;;;;4993450;28;20026;-71
2021/10/15 03:54:51;;;;;;;10.07;5.43;;;13.20;91.90;;;;;;4994698;28;20033;-71
2021/10/15 03:57:16;;;;;;;10.45;5.55;;;13.30;91.80;;;;;;4995624;28;20026;-70
2021/10/15 03:59:42;;;;;;;10.73;4.85;;;13.30;91.70;;;;;;4995347;28;20359;-71
2021/10/15 04:02:07;;;;;;;9.75;5.20;;;13.20;91.70;;;;;;4995593;28;20037;-71
2021/10/15 04:04:33;;;;;;;10.65;5.50;;;13.30;91.60;;;;;;4995546;28;20069;-70
2021/10/15 04:06:59;;;;;;;10.88;5.32;;;13.20;91.60;;;;;;4995364;28;20058;-71
2021/10/15 04:09:24;;;;;;;9.63;4.85;;;13.20;91.80;;;;;;4993747;28;20030;-71
2021/10/15 04:11:50;;;;;;;10.80;5.25;;;13.20;91.60;;;;;;4994049;28;20113;-71
2021/10/15 04:14:16;;;;;;;10.43;5.47;;;13.30;91.50;;;;;;4995512;28;20026;-70
2021/10/15 04:16:42;;;;;;;12.20;5.80;;;13.20;91.40;;;;;;4995317;28;20030;-71
2021/10/15 04:19:08;;;;;;;9.88;5.25;;;13.20;91.40;;;;;;4994925;28;20386;-71
2021/10/15 04:21:34;;;;;;;10.70;5.03;;;13.20;91.50;;;;;;4995197;28;20035;-71
2021/10/15 04:23:59;;;;;;;8.57;4.65;;;13.20;91.40;;;;;;4995045;28;20402;-71
2021/10/15 04:26:25;;;;;;;9.40;5.18;;;13.20;91.50;;;;;;4994996;28;20036;-70
2021/10/15 04:28:50;;;;;;;10.18;5.30;;;13.20;91.50;;;;;;4994798;28;20121;-71
2021/10/15 04:31:16;;;;;;;9.18;4.85;;;13.20;91.40;;;;;;4994236;28;20027;-71
2021/10/15 04:33:42;;;;;;;9.95;5.43;;;13.20;91.40;;;;;;4998486;28;20757;-71
2021/10/15 04:36:07;;;;;;;10.77;5.35;;;13.20;91.40;;;;;;5012307;28;20068;-71
2021/10/15 04:38:33;;;;;;;11.40;5.55;;;13.30;91.40;;;;;;5014122;28;20087;-71
2021/10/15 04:40:59;;;;;;;9.50;4.80;;;13.20;91.40;;;;;;5012855;28;20072;-71
2021/10/15 04:43:24;;;;;;;8.82;4.90;;;13.20;91.30;;;;;;4993390;28;20026;-70
2021/10/15 04:45:50;;;;;;;9.75;4.80;;;13.20;91.30;;;;;;5009719;28;20025;-71
2021/10/15 04:48:15;;;;;;;9.70;5.00;;;13.20;91.30;;;;;;5014053;28;20413;-71
2021/10/15 04:50:41;;;;;;;9.15;5.53;;;13.20;91.40;;;;;;5014276;28;20029;-70
2021/10/15 04:53:08;;;;;;;11.18;5.28;;;13.20;91.40;;;;;;5012966;28;20022;-71
2021/10/15 04:55:35;;;;;;;8.52;4.85;;;13.20;91.30;;;;;;5012937;28;20034;-71
2021/10/15 04:58:02;;;;;;;10.65;5.70;;;13.20;91.20;;;;;;5014032;28;20405;-71
2021/10/15 05:00:31;;;;;;;11.98;5.45;;;13.30;91.10;;;;;;5013733;28;20034;-71
2021/10/15 05:02:57;;;;;;;9.75;5.25;;;13.20;91.20;;;;;;5014087;28;20075;-71
2021/10/15 05:05:33;;;;;;;9.80;5.15;;;13.20;91.20;;;;;;5013997;28;20109;-71
2021/10/15 05:07:59;;;;;;;11.88;5.20;;;13.20;91.30;;;;;;5012393;28;20489;-71
2021/10/15 05:10:27;;;;;;;9.68;5.43;;;13.30;91.30;;;;;;5013682;28;20101;-71
2021/10/15 05:12:53;;;;;;;10.48;5.70;;;13.20;91.10;;;;;;5012676;28;20029;-71
2021/10/15 05:15:19;;;;;;;10.52;5.30;;;13.20;91.10;;;;;;5013850;28;20026;-70
2021/10/15 05:17:46;;;;;;;11.95;6.10;;;13.30;91.30;;;;;;5013685;28;20030;-71
2021/10/15 05:20:15;;;;;;;10.43;5.85;;;13.20;91.00;;;;;;5013460;28;20033;-71
2021/10/15 05:22:42;;;;;;;11.25;6.05;;;13.20;91.20;;;;;;5013626;28;20057;-70
2021/10/15 05:25:08;;;;;;;10.95;5.80;;;13.20;91.10;;;;;;5013580;28;20105;-71
2021/10/15 05:27:34;;;;;;;10.98;5.82;;;13.20;91.10;;;;;;5013604;28;20478;-71
2021/10/15 05:30:00;;;;;;;12.27;6.32;;;13.20;91.10;;;;;;5013266;28;20032;-71
2021/10/15 05:32:27;;;;;;;13.82;6.20;;;13.20;91.10;;;;;;5013579;28;20509;-71
2021/10/15 05:34:53;;;;;;;13.25;5.93;;;13.20;91.30;;;;;;5012268;28;20022;-71
2021/10/15 05:37:18;;;;;;;12.75;5.80;;;13.20;91.10;;;;;;5013609;28;20096;-71
2021/10/15 05:39:45;;;;;;;11.70;6.05;;;13.20;91.20;;;;;;5013097;28;20025;-72
2021/10/15 05:42:11;;;;;;;10.90;5.95;;;13.20;91.10;;;;;;5013406;28;20488;-71
2021/10/15 05:44:37;;;;;;;11.57;6.47;;;13.20;91.20;;;;;;5013306;28;20121;-70
2021/10/15 05:47:05;;;;;;;12.43;6.25;;;13.20;91.20;;;;;;5013264;28;20052;-70
2021/10/15 05:49:32;;;;;;;13.38;6.47;;;13.20;91.20;;;;;;5012875;28;20393;-71
2021/10/15 05:52:07;;;;;;;11.88;6.32;;;13.20;91.10;;;;;;5010520;28;20398;-70
2021/10/15 05:59:39;;;;;;;12.15;6.70;;;13.20;91.20;;;;;;5012669;28;20386;-72
2021/10/15 06:02:06;;;;;;;13.52;6.50;;;13.20;91.20;;;;;;5012964;28;20532;-71
2021/10/15 06:15:29;;;;;;;13.52;7.03;;;13.20;91.30;;;;;;5001638;28;20645;-70
2021/10/15 06:17:56;;;;;;;12.57;6.60;;;13.20;91.30;;;;;;5011514;28;20057;-71
2021/10/15 06:20:22;;;;;;;12.40;7.65;;;13.10;91.30;;;;;;5012418;28;20025;-71
2021/10/15 06:22:47;;;;;;;13.20;7.13;;;13.20;91.30;;;;;;5011172;28;20064;-71
2021/10/15 06:25:13;;;;;;;14.30;6.60;;;13.10;91.30;;;;;;5012588;28;20057;-71
2021/10/15 06:27:38;;;;;;;14.20;7.07;;;13.10;91.40;;;;;;5011162;28;20033;-71
2021/10/15 06:30:05;;;;;;;13.43;7.18;;;13.10;91.50;;;;;;5010951;28;20018;-71
2021/10/15 06:32:30;;;;;;;11.30;6.65;;;13.10;91.50;;;;;;5012477;28;20392;-71
2021/10/15 06:34:56;;;;;;;13.63;7.20;;;13.10;91.50;;;;;;5012565;28;20022;-71
2021/10/15 06:37:22;;;;;;;11.13;6.70;;;13.10;91.50;;;;;;5012213;28;20072;-72
2021/10/15 06:39:47;;;;;;;11.48;7.00;;;13.10;91.60;;;;;;5012162;28;20484;-71
2021/10/15 06:42:13;;;;;;;10.35;6.40;;;13.10;91.60;;;;;;5012364;28;20026;-70
2021/10/15 06:44:38;;;;;;;12.90;7.20;;;13.10;91.60;;;;;;5012574;28;20366;-70
2021/10/15 06:47:05;;;;;;;12.25;6.47;;;13.20;91.70;;;;;;5011131;28;20036;-71
2021/10/15 06:49:30;;;;;;;12.38;6.32;;;13.20;91.70;;;;;;5011985;28;20022;-70
2021/10/15 06:51:56;;;;;;;11.77;7.03;;;13.20;91.70;;;;;;5012174;28;20022;-70
2021/10/15 06:54:22;;;;;;;10.82;6.93;;;13.20;91.70;;;;;;5012206;28;20036;-72
2021/10/15 06:56:47;;;;;;;13.75;7.18;;;13.20;91.80;;;;;;5011037;28;20036;-71
2021/10/15 06:59:13;;;;;;;10.88;7.13;;;13.20;91.70;;;;;;5010714;28;20033;-70
2021/10/15 07:01:38;;;;;;;14.45;7.50;;;13.10;91.70;;;;;;5012379;28;20595;-70
2021/10/15 07:04:04;;;;;;;15.30;7.93;;;13.10;91.80;;;;;;5010941;28;20030;-71
2021/10/15 07:06:30;;;;;;;11.43;6.82;;;13.10;91.80;;;;;;5011481;28;20096;-70
2021/10/15 07:08:56;;;;;;;13.65;7.03;;;13.20;91.80;;;;;;5011613;28;20038;-71
2021/10/15 07:11:22;;;;;;;12.60;7.32;;;13.10;91.70;;;;;;5012137;28;20026;-71
2021/10/15 07:13:47;;;;;;;12.50;7.20;;;13.10;91.80;;;;;;5012056;28;20426;-71
2021/10/15 07:16:13;;;;;;;13.13;6.82;;;13.10;91.80;;;;;;5012349;28;20026;-71
2021/10/15 07:18:39;;;;;;;13.07;7.80;;;13.20;91.90;;;;;;5011616;28;20520;-71
2021/10/15 07:21:06;;;;;;;12.38;7.47;;;13.20;91.90;;;;;;5011808;28;20133;-71
2021/10/15 07:23:32;;;;;;;11.80;7.07;;;13.20;91.90;;;;;;5011779;28;20592;-71
2021/10/15 07:25:59;;;;;;;10.13;6.60;;;13.20;91.90;;;;;;5010428;28;20037;-71
2021/10/15 07:28:26;;;;;;;12.15;6.82;;;13.20;91.90;;;;;;5011363;28;20022;-70
2021/10/15 07:30:53;;;;;;;12.98;7.68;;;13.20;92.00;;;;;;5010380;28;20034;-69
2021/10/15 07:33:18;;;;;;;21.55;8.48;;;13.20;92.00;;;;;;5011721;28;20073;-71
2021/10/15 07:35:44;;;;;;;14.50;7.22;;;13.20;92.20;;;;;;5011551;28;20030;-70
2021/10/15 07:38:10;;;;;;;15.18;7.93;;;13.20;91.90;;;;;;5010360;28;20036;-70
2021/10/15 07:40:35;;;;;;;13.38;7.30;;;13.20;92.00;;;;;;5011536;28;20022;-71
2021/10/15 07:43:01;;;;;;;13.52;7.03;;;13.20;92.00;;;;;;5010418;28;20026;-70
2021/10/15 07:45:28;;;;;;;12.63;7.35;;;13.20;92.10;;;;;;5011497;28;20493;-70
2021/10/15 07:47:54;;;;;;;14.98;7.60;;;13.20;92.10;;;;;;5011514;28;20018;-70
2021/10/15 07:50:20;;;;;;;12.85;7.50;;;13.20;92.00;;;;;;5011134;28;20032;-70
2021/10/15 07:52:46;;;;;;;15.55;7.97;;;13.20;92.10;;;;;;5010212;28;20022;-70
2021/10/15 07:55:12;;;;;;;13.93;7.72;;;13.20;92.10;;;;;;5010142;28;20510;-70
2021/10/15 07:57:37;;;;;;;15.30;8.00;;;13.20;92.10;;;;;;5011367;28;20474;-70
2021/10/15 08:00:08;;;;;;;12.75;7.93;;;13.20;92.10;;;;;;5011178;28;20022;-70
2021/10/15 08:02:34;;;;;;;14.88;7.78;;;13.20;92.20;;;;;;5011471;28;20029;-70
2021/10/15 08:05:00;;;;;;;16.80;8.57;;;13.20;92.20;;;;;;5011294;28;20026;-69
2021/10/15 08:07:25;;;;;;;13.40;8.05;;;13.20;92.20;;;;;;5011101;28;20038;-70
2021/10/15 08:09:51;;;;;;;17.77;8.63;;;13.20;92.30;;;;;;5011057;28;20029;-69
2021/10/15 08:12:17;;;;;;;16.63;8.52;;;13.20;92.40;;;;;;5011466;28;20310;-70
2021/10/15 08:14:42;;;;;;;12.35;8.05;;;13.20;92.40;;;;;;5011290;28;20019;-70
2021/10/15 08:17:08;;;;;;;13.55;8.38;;;13.20;92.50;;;;;;5011836;28;20030;-70
2021/10/15 08:19:34;;;;;;;15.40;8.35;;;13.20;92.60;;;;;;5014538;28;20022;-70
2021/10/15 08:21:59;;;;;;;12.25;8.20;;;13.20;92.70;;;;;;5014766;28;20508;-71
2021/10/15 08:24:25;;;;;;;13.85;7.85;;;13.20;92.80;;;;;;5014696;28;20389;-70
2021/10/15 08:26:51;;;;;;;14.18;8.35;;;13.20;92.80;;;;;;5014656;28;20477;-70
2021/10/15 08:29:18;;;;;;;12.38;7.97;;;13.20;92.90;;;;;;5014469;28;20487;-70
2021/10/15 08:31:43;;;;;;;12.50;7.93;;;13.20;92.90;;;;;;5014568;28;20022;-70
2021/10/15 08:34:10;;;;;;;11.43;7.93;;;13.20;93.00;;;;;;5014887;28;20500;-70
2021/10/15 08:36:40;;;;;;;30.45;9.50;;;13.20;93.00;;;;;;5014524;28;20030;-70
2021/10/15 08:39:06;;;;;;;29.70;9.13;;;13.20;93.00;;;;;;5014093;28;20030;-71
2021/10/15 08:41:32;;;;;;;22.27;9.00;;;13.20;93.10;;;;;;5013329;28;20033;-70
2021/10/15 08:43:58;;;;;;;20.50;8.75;;;13.20;93.30;;;;;;5014396;28;20401;-70
2021/10/15 08:46:24;;;;;;;25.30;7.97;;;13.20;93.20;;;;;;5014291;28;20033;-71
2021/10/15 08:48:50;;;;;;;20.50;7.75;;;13.20;93.20;;;;;;5012626;28;20077;-70
2021/10/15 08:51:19;;;;;;;18.02;7.72;;;13.20;93.30;;;;;;5014416;28;20046;-71
2021/10/15 08:53:49;;;;;;;17.80;7.38;;;13.20;93.40;;;;;;5014132;28;20105;-71
2021/10/15 08:56:18;;;;;;;17.85;7.38;;;13.20;93.40;;;;;;5014222;28;20022;-70
2021/10/15 08:58:47;;;;;;;12.50;7.05;;;13.20;93.40;;;;;;5013753;28;20046;-71
2021/10/15 09:01:12;;;;;;;13.32;7.10;;;13.20;93.40;;;;;;5013974;28;20097;-70
2021/10/15 09:03:38;;;;;;;12.48;7.07;;;13.20;93.40;;;;;;5013986;28;20065;-71
2021/10/15 09:06:06;;;;;;;13.90;6.53;;;13.20;93.40;;;;;;5013921;28;20022;-72
2021/10/15 09:08:48;;;;;;;13.52;6.40;;;13.20;93.40;;;;;;5013430;28;20029;-70
2021/10/15 09:11:36;;;;;;;11.82;6.40;;;13.20;93.50;;;;;;5013934;28;20025;-71
2021/10/15 09:14:18;;;;;;;13.23;5.68;;;13.20;93.50;;;;;;5013887;28;20072;-71
2021/10/15 09:17:05;;;;;;;15.93;6.53;;;13.20;93.50;;;;;;5013897;28;20056;-70
2021/10/15 09:19:38;;;;;;;11.43;5.55;;;13.20;93.60;;;;;;5013511;28;20033;-71
2021/10/15 09:22:11;;;;;;;10.95;5.38;;;13.20;93.60;;;;;;5013571;28;20477;-70
2021/10/15 09:24:46;;;;;;;11.48;5.28;;;13.20;93.50;;;;;;5013731;28;20105;-71
2021/10/15 09:27:19;;;;;;;9.70;4.97;;;13.20;93.50;;;;;;5013443;28;20061;-71
2021/10/15 09:29:47;;;;;;;8.60;4.70;;;13.20;93.50;;;;;;5012926;28;20018;-70
2021/10/15 09:32:14;;;;;;;8.65;4.28;;;13.20;93.60;;;;;;5013472;28;20022;-71
2021/10/15 09:34:39;;;;;;;10.05;4.70;;;13.20;93.70;;;;;;5013300;28;20029;-71
2021/10/15 09:37:24;;;;;;;9.65;4.15;;;13.20;93.50;;;;;;5013211;28;20394;-71
2021/10/15 09:39:50;;;;;;;10.43;4.50;;;13.20;93.50;;;;;;5013143;28;20026;-71
2021/10/15 09:42:24;;;;;;;7.03;4.20;;;13.20;93.40;;;;;;5012044;28;20026;-71
2021/10/15 09:44:51;;;;;;;8.25;4.05;;;13.20;93.40;;;;;;5013196;28;20477;-71
2021/10/15 09:47:24;;;;;;;9.88;4.03;;;13.20;93.40;;;;;;5013052;28;20046;-71
2021/10/15 09:50:00;;;;;;;8.48;3.70;;;13.20;93.50;;;;;;5012883;28;20033;-70
2021/10/15 09:52:37;;;;;;;8.70;3.60;;;13.20;93.40;;;;;;5013013;28;20517;-72
2021/10/15 09:55:13;;;;;;;6.60;3.30;;;13.20;93.50;;;;;;5013053;28;20025;-71
2021/10/15 09:57:40;;;;;;;8.50;3.72;;;13.20;93.50;;;;;;5012867;28;20026;-71
2021/10/15 10:00:15;;;;;;;5.85;3.10;;;13.20;93.50;;;;;;5012700;28;20401;-71
2021/10/15 10:02:41;;;;;;;10.27;3.70;;;13.20;93.50;;;;;;5013106;28;20026;-71
2021/10/15 10:05:12;;;;;;;8.32;3.63;;;13.30;93.50;;;;;;5012863;28;20033;-71
2021/10/15 10:07:39;;;;;;;8.83;3.30;;;13.30;93.60;;;;;;5012707;28;20068;-70
2021/10/15 10:10:07;;;;;;;7.45;3.42;;;13.30;93.60;;;;;;5012410;28;20257;-72
2021/10/15 10:12:37;;;;;;;8.23;3.17;;;13.30;93.60;;;;;;5012991;28;20018;-70
2021/10/15 10:15:04;;;;;;;6.93;3.35;;;13.20;93.60;;;;;;5012638;28;20052;-70
2021/10/15 10:17:36;;;;;;;5.30;2.83;;;13.20;93.60;;;;;;5012666;28;20052;-70
2021/10/15 10:20:12;;;;;;;6.68;2.80;;;13.20;93.70;;;;;;5012441;28;20049;-71
2021/10/15 10:22:46;;;;;;;8.00;2.80;;;13.20;93.60;;;;;;5012523;28;20038;-71
2021/10/15 10:25:18;;;;;;;5.25;2.60;;;13.20;93.60;;;;;;5012712;28;20018;-71
2021/10/15 10:27:43;;;;;;;5.13;2.50;;;13.20;93.60;;;;;;5012480;28;20072;-71
2021/10/15 10:30:09;;;;;;;6.38;2.42;;;13.20;93.60;;;;;;5012242;28;20033;-70
2021/10/15 10:32:35;;;;;;;6.43;2.40;;;13.30;93.70;;;;;;5012453;28;20018;-70
2021/10/15 10:35:27;;;;;;;5.55;2.45;;;13.20;93.70;;;;;;5012288;28;20022;-71
2021/10/15 10:38:20;;;;;;;6.03;2.20;;;13.20;93.70;;;;;;5012156;28;20405;-71
2021/10/15 10:41:01;;;;;;;4.85;2.30;;;13.20;93.70;;;;;;5011659;28;20029;-70
2021/10/15 10:43:30;;;;;;;4.93;2.05;;;13.20;93.60;;;;;;5012163;28;20028;-71
2021/10/15 10:46:08;;;;;;;11.15;2.58;;;13.20;93.70;;;;;;5010171;28;20037;-69
2021/10/15 10:48:46;;;;;;;5.68;1.98;;;13.30;93.70;;;;;;5001028;28;20434;-70
2021/10/15 10:51:13;;;;;;;6.10;2.03;;;13.30;93.60;;;;;;5001003;28;20050;-71
2021/10/15 10:54:04;;;;;;;5.28;1.80;;;13.30;93.60;;;;;;5000521;28;20049;-70
2021/10/15 10:56:38;;;;;;;5.40;2.38;;;13.30;93.60;;;;;;5003121;28;20426;-72
2021/10/15 10:59:20;;;;;;;7.60;2.10;;;13.30;93.70;;;;;;5001701;28;20465;-71
2021/10/15 11:01:46;;;;;;;;;;;13.40;93.70;;;;;;5011139;28;20022;-72
2021/10/15 11:04:36;;;;;;;4.80;1.77;;;13.30;93.80;;;;;;5010660;28;19912;-72
2021/10/15 11:07:06;;;;;;;;;;;13.30;93.70;;;;;;5012312;28;20033;-70
2021/10/15 11:10:10;;;;;;;4.93;1.80;;;13.30;93.70;;;;;;5011697;28;19920;-71
2021/10/15 11:12:36;;;;;;;5.10;1.95;;;13.40;93.80;;;;;;4932001;29;20070;-70
2021/10/15 11:15:07;;;;;;;5.68;1.70;;;13.40;93.70;;;;;;4995137;28;20034;-70
2021/10/15 11:17:35;;;;;;;5.43;1.45;;;13.30;93.70;;;;;;5011892;28;20043;-71
2021/10/15 11:20:19;;;;;;;3.30;1.83;;;13.40;93.80;;;;;;5011574;28;20482;-71
2021/10/15 11:22:56;;;;;;;4.95;1.50;;;13.40;93.80;;;;;;5011791;28;20109;-71
2021/10/15 11:25:25;;;;;;;4.72;1.80;;;13.40;93.90;;;;;;5010491;28;20026;-70
2021/10/15 11:27:53;;;;;;;3.65;1.30;;;13.40;93.90;;;;;;5011724;28;20026;-71
2021/10/15 11:30:20;;;;;;;23.92;3.47;;;13.40;94.00;;;;;;5011479;28;20393;-71
2021/10/15 11:32:48;;;;;;;11.18;1.90;;;13.40;93.90;;;;;;5011745;28;20536;-70
2021/10/15 11:35:14;;;;;;;9.32;1.52;;;13.50;94.00;;;;;;5011652;28;20049;-71
2021/10/15 11:37:47;;;;;;;13.10;2.80;;;13.50;94.20;;;;;;5011608;28;20493;-70
2021/10/15 11:40:17;;;;;;;11.98;2.10;;;13.40;94.20;;;;;;5002201;28;20648;-70
2021/10/15 11:42:43;;;;;;;8.45;1.70;;;13.50;93.80;;;;;;5001630;28;20026;-70
2021/10/15 11:45:36;;;;;;;6.93;1.50;;;13.50;94.10;;;;;;5008775;28;20026;-71
2021/10/15 11:48:03;;;;;;;7.53;2.03;;;13.50;94.40;;;;;;5010110;28;20030;-72
2021/10/15 11:50:32;;;;;;;6.60;1.50;;;13.50;94.50;;;;;;5011273;28;20026;-71
2021/10/15 11:52:57;;;;;;;8.57;1.60;;;13.40;94.30;;;;;;5001835;28;20026;-70
2021/10/15 11:55:31;;;;;;;4.90;1.70;;;13.50;94.30;;;;;;5009805;28;20022;-70
2021/10/15 11:58:13;;;;;;;9.63;1.65;;;13.50;94.60;;;;;;5015218;28;20018;-71
2021/10/15 12:01:07;;;;;;;9.43;1.35;;;13.50;93.80;;;;;;5004092;28;20142;-70
2021/10/15 12:03:41;;;;;;;7.28;1.80;;;13.40;92.90;;;;;;5003827;28;20029;-71
2021/10/15 12:06:14;;;;;;;10.65;1.50;;;13.40;92.90;;;;;;5012887;28;20503;-70
2021/10/15 12:08:41;;;;;;;10.52;1.80;;;13.40;92.90;;;;;;5013250;28;20037;-70
2021/10/15 12:11:13;;;;;;;11.48;1.90;;;13.40;92.90;;;;;;5014724;28;20413;-70
2021/10/15 12:13:39;;;;;;;20.05;2.00;;;13.40;93.00;;;;;;5015024;28;20557;-71
2021/10/15 12:16:17;;;;;;;10.73;1.58;;;13.40;93.00;;;;;;5015207;28;20117;-71
2021/10/15 12:18:42;;;;;;;11.88;1.90;;;13.40;92.80;;;;;;5013084;28;20036;-70
2021/10/15 12:21:12;;;;;;;9.43;1.50;;;13.40;92.50;;;;;;5014731;28;20481;-70
2021/10/15 12:23:51;;;;;;;6.45;1.00;;;13.40;92.60;;;;;;5014807;28;20109;-71
2021/10/15 12:26:19;;;;;;;12.63;1.80;;;13.40;92.20;;;;;;5013416;28;20049;-71
2021/10/15 12:28:44;;;;;;;6.70;1.40;;;13.40;92.20;;;;;;5014375;28;20022;-71
2021/10/15 12:31:35;;;;;;;8.82;1.70;;;13.40;92.30;;;;;;5013361;28;20500;-71
2021/10/15 12:34:15;;;;;;;8.95;1.52;;;13.50;92.40;;;;;;5014866;28;20026;-71
2021/10/15 12:36:42;;;;;;;7.80;1.63;;;13.50;92.70;;;;;;5014646;28;20061;-70
2021/10/15 12:39:37;;;;;;;7.90;1.45;;;13.50;93.10;;;;;;5013103;28;20064;-70
2021/10/15 12:42:15;;;;;;;6.88;1.38;;;13.50;93.40;;;;;;4997532;28;20044;-71
2021/10/15 12:44:41;;;;;;;8.85;1.58;;;13.50;93.30;;;;;;5013209;28;20113;-71
2021/10/15 12:47:08;;;;;;;7.07;1.60;;;13.50;93.60;;;;;;5014393;28;20109;-71
2021/10/15 12:50:03;;;;;;;7.88;1.70;;;13.50;93.80;;;;;;5014020;28;20079;-70
2021/10/15 12:52:34;;;;;;;8.90;1.30;;;13.50;93.80;;;;;;5014212;28;20076;-71
2021/10/15 12:55:27;;;;;;;8.17;1.40;;;13.50;94.00;;;;;;5014180;28;20029;-70
2021/10/15 12:58:06;;;;;;;7.88;1.35;;;13.50;93.90;;;;;;5012930;28;20380;-70
2021/10/15 13:00:52;;;;;;;6.22;1.20;;;13.60;93.80;;;;;;5013907;28;20061;-70
2021/10/15 13:03:19;;;;;;;5.15;1.40;;;13.50;94.30;;;;;;5013330;28;20455;-70